sensor_id;sensor_type;location;lat;lon;timestamp;P1;durP1;ratioP1;P2;durP2;ratioP2
66607;SDS011;53462;39.616;8.824;2022-12-31T00:01:43;17.02;;;9.52;;
66607;SDS011;53462;39.616;8.824;2022-12-31T00:04:09;21.65;;;10.50;;
66607;SDS011;53462;39.616;8.824;2022-12-31T00:06:35;26.70;;;12.27;;
66607;SDS011;53462;39.616;8.824;2022-12-31T00:09:03;12.43;;;7.25;;
66607;SDS011;53462;39.616;8.824;2022-12-31T00:11:31;16.83;;;8.02;;
66607;SDS011;53462;39.616;8.824;2022-12-31T00:13:58;18.52;;;9.05;;
66607;SDS011;53462;39.616;8.824;2022-12-31T00:16:31;22.00;;;8.68;;
66607;SDS011;53462;39.616;8.824;2022-12-31T00:19:00;18.50;;;8.20;;
66607;SDS011;53462;39.616;8.824;2022-12-31T00:21:28;13.98;;;8.45;;
66607;SDS011;53462;39.616;8.824;2022-12-31T00:23:56;20.48;;;10.10;;
66607;SDS011;53462;39.616;8.824;2022-12-31T00:26:23;14.35;;;8.50;;
66607;SDS011;53462;39.616;8.824;2022-12-31T00:28:51;16.48;;;9.50;;
66607;SDS011;53462;39.616;8.824;2022-12-31T00:31:22;20.23;;;10.15;;
66607;SDS011;53462;39.616;8.824;2022-12-31T00:33:50;21.48;;;10.82;;
66607;SDS011;53462;39.616;8.824;2022-12-31T00:36:17;20.35;;;10.20;;
66607;SDS011;53462;39.616;8.824;2022-12-31T00:38:49;19.42;;;9.27;;
66607;SDS011;53462;39.616;8.824;2022-12-31T00:41:16;17.05;;;8.60;;
66607;SDS011;53462;39.616;8.824;2022-12-31T00:43:43;13.07;;;7.32;;
66607;SDS011;53462;39.616;8.824;2022-12-31T00:46:10;17.77;;;7.13;;
66607;SDS011;53462;39.616;8.824;2022-12-31T00:48:36;12.95;;;6.30;;
66607;SDS011;53462;39.616;8.824;2022-12-31T00:51:04;13.60;;;5.90;;
66607;SDS011;53462;39.616;8.824;2022-12-31T00:53:31;12.20;;;6.35;;
66607;SDS011;53462;39.616;8.824;2022-12-31T00:56:04;11.13;;;5.72;;
66607;SDS011;53462;39.616;8.824;2022-12-31T00:58:33;17.92;;;6.30;;
66607;SDS011;53462;39.616;8.824;2022-12-31T01:01:07;21.35;;;9.02;;
66607;SDS011;53462;39.616;8.824;2022-12-31T01:03:37;23.17;;;9.18;;
66607;SDS011;53462;39.616;8.824;2022-12-31T01:06:03;27.02;;;9.55;;
66607;SDS011;53462;39.616;8.824;2022-12-31T01:08:29;19.90;;;9.60;;
66607;SDS011;53462;39.616;8.824;2022-12-31T01:10:55;20.63;;;10.57;;
66607;SDS011;53462;39.616;8.824;2022-12-31T01:13:39;19.10;;;9.07;;
66607;SDS011;53462;39.616;8.824;2022-12-31T01:16:09;19.92;;;7.30;;
66607;SDS011;53462;39.616;8.824;2022-12-31T01:18:36;15.50;;;6.78;;
66607;SDS011;53462;39.616;8.824;2022-12-31T01:21:03;16.42;;;7.13;;
66607;SDS011;53462;39.616;8.824;2022-12-31T01:23:30;17.73;;;6.63;;
66607;SDS011;53462;39.616;8.824;2022-12-31T01:26:00;14.68;;;6.13;;
66607;SDS011;53462;39.616;8.824;2022-12-31T01:28:28;13.18;;;6.38;;
66607;SDS011;53462;39.616;8.824;2022-12-31T01:30:54;14.55;;;6.22;;
66607;SDS011;53462;39.616;8.824;2022-12-31T01:33:20;11.25;;;6.20;;
66607;SDS011;53462;39.616;8.824;2022-12-31T01:35:46;14.98;;;5.80;;
66607;SDS011;53462;39.616;8.824;2022-12-31T01:38:12;11.05;;;5.55;;
66607;SDS011;53462;39.616;8.824;2022-12-31T01:40:38;15.43;;;6.95;;
66607;SDS011;53462;39.616;8.824;2022-12-31T01:43:17;17.42;;;6.82;;
66607;SDS011;53462;39.616;8.824;2022-12-31T01:45:51;14.93;;;5.93;;
66607;SDS011;53462;39.616;8.824;2022-12-31T01:48:20;17.70;;;7.43;;
66607;SDS011;53462;39.616;8.824;2022-12-31T01:50:50;14.05;;;7.30;;
66607;SDS011;53462;39.616;8.824;2022-12-31T01:53:17;15.80;;;6.53;;
66607;SDS011;53462;39.616;8.824;2022-12-31T01:55:46;12.85;;;6.55;;
66607;SDS011;53462;39.616;8.824;2022-12-31T01:58:21;13.93;;;6.32;;
66607;SDS011;53462;39.616;8.824;2022-12-31T02:00:50;13.80;;;6.32;;
66607;SDS011;53462;39.616;8.824;2022-12-31T02:03:17;12.35;;;6.90;;
66607;SDS011;53462;39.616;8.824;2022-12-31T02:05:53;12.30;;;6.75;;
66607;SDS011;53462;39.616;8.824;2022-12-31T02:08:29;12.63;;;6.60;;
66607;SDS011;53462;39.616;8.824;2022-12-31T02:10:55;14.05;;;6.93;;
66607;SDS011;53462;39.616;8.824;2022-12-31T02:13:21;11.82;;;6.18;;
66607;SDS011;53462;39.616;8.824;2022-12-31T02:15:54;14.60;;;6.50;;
66607;SDS011;53462;39.616;8.824;2022-12-31T02:18:37;16.60;;;6.82;;
66607;SDS011;53462;39.616;8.824;2022-12-31T02:26:58;17.13;;;7.15;;
66607;SDS011;53462;39.616;8.824;2022-12-31T02:35:00;17.15;;;6.47;;
66607;SDS011;53462;39.616;8.824;2022-12-31T02:37:32;12.75;;;6.35;;
66607;SDS011;53462;39.616;8.824;2022-12-31T02:39:59;14.80;;;6.22;;
66607;SDS011;53462;39.616;8.824;2022-12-31T02:42:26;17.05;;;7.72;;
66607;SDS011;53462;39.616;8.824;2022-12-31T02:44:52;18.05;;;7.72;;
66607;SDS011;53462;39.616;8.824;2022-12-31T02:55:44;14.05;;;7.90;;
66607;SDS011;53462;39.616;8.824;2022-12-31T03:01:31;13.45;;;6.65;;
66607;SDS011;53462;39.616;8.824;2022-12-31T03:04:20;14.25;;;6.47;;
66607;SDS011;53462;39.616;8.824;2022-12-31T03:07:04;15.27;;;7.95;;
66607;SDS011;53462;39.616;8.824;2022-12-31T03:09:33;13.98;;;6.75;;
66607;SDS011;53462;39.616;8.824;2022-12-31T03:12:00;12.93;;;6.68;;
66607;SDS011;53462;39.616;8.824;2022-12-31T03:14:45;13.48;;;6.82;;
66607;SDS011;53462;39.616;8.824;2022-12-31T03:17:11;11.50;;;7.15;;
66607;SDS011;53462;39.616;8.824;2022-12-31T03:19:38;14.13;;;7.57;;
66607;SDS011;53462;39.616;8.824;2022-12-31T03:22:22;10.88;;;6.25;;
66607;SDS011;53462;39.616;8.824;2022-12-31T03:24:51;14.68;;;6.72;;
66607;SDS011;53462;39.616;8.824;2022-12-31T03:27:37;13.35;;;7.07;;
66607;SDS011;53462;39.616;8.824;2022-12-31T03:30:03;14.70;;;6.35;;
66607;SDS011;53462;39.616;8.824;2022-12-31T03:32:29;21.48;;;7.05;;
66607;SDS011;53462;39.616;8.824;2022-12-31T03:34:55;13.45;;;5.90;;
66607;SDS011;53462;39.616;8.824;2022-12-31T03:37:21;17.27;;;6.63;;
66607;SDS011;53462;39.616;8.824;2022-12-31T03:39:47;12.02;;;6.00;;
66607;SDS011;53462;39.616;8.824;2022-12-31T03:42:13;16.13;;;6.70;;
66607;SDS011;53462;39.616;8.824;2022-12-31T03:44:39;12.93;;;6.28;;
66607;SDS011;53462;39.616;8.824;2022-12-31T03:47:05;16.58;;;6.18;;
66607;SDS011;53462;39.616;8.824;2022-12-31T03:49:30;8.98;;;5.82;;
66607;SDS011;53462;39.616;8.824;2022-12-31T03:51:56;13.80;;;6.18;;
66607;SDS011;53462;39.616;8.824;2022-12-31T03:54:22;15.32;;;7.55;;
66607;SDS011;53462;39.616;8.824;2022-12-31T03:56:48;15.18;;;6.65;;
66607;SDS011;53462;39.616;8.824;2022-12-31T03:59:14;14.18;;;6.05;;
66607;SDS011;53462;39.616;8.824;2022-12-31T04:01:39;19.02;;;7.32;;
66607;SDS011;53462;39.616;8.824;2022-12-31T04:04:05;12.43;;;6.57;;
66607;SDS011;53462;39.616;8.824;2022-12-31T04:06:31;23.48;;;6.05;;
66607;SDS011;53462;39.616;8.824;2022-12-31T04:08:57;23.02;;;10.55;;
66607;SDS011;53462;39.616;8.824;2022-12-31T04:11:23;19.52;;;7.15;;
66607;SDS011;53462;39.616;8.824;2022-12-31T04:13:48;17.25;;;7.00;;
66607;SDS011;53462;39.616;8.824;2022-12-31T04:16:14;15.30;;;5.63;;
66607;SDS011;53462;39.616;8.824;2022-12-31T04:18:40;9.35;;;5.53;;
66607;SDS011;53462;39.616;8.824;2022-12-31T04:21:06;18.65;;;6.45;;
66607;SDS011;53462;39.616;8.824;2022-12-31T04:23:32;14.07;;;7.03;;
66607;SDS011;53462;39.616;8.824;2022-12-31T04:25:58;14.98;;;5.85;;
66607;SDS011;53462;39.616;8.824;2022-12-31T04:28:23;13.73;;;6.63;;
66607;SDS011;53462;39.616;8.824;2022-12-31T04:30:49;19.13;;;8.20;;
66607;SDS011;53462;39.616;8.824;2022-12-31T04:33:16;18.42;;;7.68;;
66607;SDS011;53462;39.616;8.824;2022-12-31T04:35:42;15.18;;;8.02;;
66607;SDS011;53462;39.616;8.824;2022-12-31T04:38:10;10.18;;;5.95;;
66607;SDS011;53462;39.616;8.824;2022-12-31T04:40:36;14.65;;;6.00;;
66607;SDS011;53462;39.616;8.824;2022-12-31T04:43:22;13.13;;;6.35;;
66607;SDS011;53462;39.616;8.824;2022-12-31T04:45:47;13.43;;;5.70;;
66607;SDS011;53462;39.616;8.824;2022-12-31T04:48:13;8.70;;;5.50;;
66607;SDS011;53462;39.616;8.824;2022-12-31T04:50:39;15.05;;;6.78;;
66607;SDS011;53462;39.616;8.824;2022-12-31T04:53:05;16.92;;;8.38;;
66607;SDS011;53462;39.616;8.824;2022-12-31T04:55:31;10.98;;;6.20;;
66607;SDS011;53462;39.616;8.824;2022-12-31T04:57:57;11.68;;;6.25;;
66607;SDS011;53462;39.616;8.824;2022-12-31T05:00:23;13.63;;;6.00;;
66607;SDS011;53462;39.616;8.824;2022-12-31T05:02:48;16.40;;;6.55;;
66607;SDS011;53462;39.616;8.824;2022-12-31T05:05:14;13.88;;;5.75;;
66607;SDS011;53462;39.616;8.824;2022-12-31T05:07:40;11.23;;;5.45;;
66607;SDS011;53462;39.616;8.824;2022-12-31T05:10:06;12.63;;;6.20;;
66607;SDS011;53462;39.616;8.824;2022-12-31T05:12:32;12.98;;;6.30;;
66607;SDS011;53462;39.616;8.824;2022-12-31T05:14:58;13.40;;;7.10;;
66607;SDS011;53462;39.616;8.824;2022-12-31T05:17:24;12.02;;;7.05;;
66607;SDS011;53462;39.616;8.824;2022-12-31T05:19:50;11.48;;;5.72;;
66607;SDS011;53462;39.616;8.824;2022-12-31T05:22:16;16.17;;;5.53;;
66607;SDS011;53462;39.616;8.824;2022-12-31T05:24:54;10.32;;;5.60;;
66607;SDS011;53462;39.616;8.824;2022-12-31T05:27:24;13.77;;;5.47;;
66607;SDS011;53462;39.616;8.824;2022-12-31T05:29:51;8.27;;;4.75;;
66607;SDS011;53462;39.616;8.824;2022-12-31T05:32:16;14.90;;;5.38;;
66607;SDS011;53462;39.616;8.824;2022-12-31T05:34:42;13.20;;;4.95;;
66607;SDS011;53462;39.616;8.824;2022-12-31T05:37:08;16.35;;;6.38;;
66607;SDS011;53462;39.616;8.824;2022-12-31T05:39:34;16.02;;;6.43;;
66607;SDS011;53462;39.616;8.824;2022-12-31T05:42:00;16.60;;;7.97;;
66607;SDS011;53462;39.616;8.824;2022-12-31T05:44:26;13.77;;;6.32;;
66607;SDS011;53462;39.616;8.824;2022-12-31T05:46:52;15.65;;;6.18;;
66607;SDS011;53462;39.616;8.824;2022-12-31T05:49:17;14.35;;;6.38;;
66607;SDS011;53462;39.616;8.824;2022-12-31T05:51:43;15.25;;;7.03;;
66607;SDS011;53462;39.616;8.824;2022-12-31T05:54:09;13.23;;;6.38;;
66607;SDS011;53462;39.616;8.824;2022-12-31T05:56:35;13.75;;;6.93;;
66607;SDS011;53462;39.616;8.824;2022-12-31T05:59:01;17.48;;;8.15;;
66607;SDS011;53462;39.616;8.824;2022-12-31T06:01:27;15.05;;;6.55;;
66607;SDS011;53462;39.616;8.824;2022-12-31T06:03:53;15.60;;;7.85;;
66607;SDS011;53462;39.616;8.824;2022-12-31T06:06:19;15.73;;;8.05;;
66607;SDS011;53462;39.616;8.824;2022-12-31T06:08:48;18.92;;;7.93;;
66607;SDS011;53462;39.616;8.824;2022-12-31T06:11:14;18.67;;;8.52;;
66607;SDS011;53462;39.616;8.824;2022-12-31T06:13:42;20.25;;;8.82;;
66607;SDS011;53462;39.616;8.824;2022-12-31T06:16:08;17.75;;;9.13;;
66607;SDS011;53462;39.616;8.824;2022-12-31T06:18:35;21.92;;;9.68;;
66607;SDS011;53462;39.616;8.824;2022-12-31T06:21:01;26.40;;;13.88;;
66607;SDS011;53462;39.616;8.824;2022-12-31T06:23:28;22.63;;;12.60;;
66607;SDS011;53462;39.616;8.824;2022-12-31T06:25:54;17.40;;;8.32;;
66607;SDS011;53462;39.616;8.824;2022-12-31T06:28:20;17.65;;;9.35;;
66607;SDS011;53462;39.616;8.824;2022-12-31T06:30:46;20.17;;;7.57;;
66607;SDS011;53462;39.616;8.824;2022-12-31T06:33:12;17.70;;;10.02;;
66607;SDS011;53462;39.616;8.824;2022-12-31T06:35:38;19.70;;;8.60;;
66607;SDS011;53462;39.616;8.824;2022-12-31T06:38:04;18.88;;;9.15;;
66607;SDS011;53462;39.616;8.824;2022-12-31T06:40:30;17.38;;;8.35;;
66607;SDS011;53462;39.616;8.824;2022-12-31T06:42:56;19.75;;;9.25;;
66607;SDS011;53462;39.616;8.824;2022-12-31T06:45:22;17.40;;;8.77;;
66607;SDS011;53462;39.616;8.824;2022-12-31T06:47:48;32.38;;;15.73;;
66607;SDS011;53462;39.616;8.824;2022-12-31T06:50:14;25.33;;;11.82;;
66607;SDS011;53462;39.616;8.824;2022-12-31T06:52:40;25.55;;;14.15;;
66607;SDS011;53462;39.616;8.824;2022-12-31T06:55:06;26.27;;;13.05;;
66607;SDS011;53462;39.616;8.824;2022-12-31T06:57:33;37.83;;;18.33;;
66607;SDS011;53462;39.616;8.824;2022-12-31T06:59:59;62.17;;;31.10;;
66607;SDS011;53462;39.616;8.824;2022-12-31T07:05:05;47.78;;;23.80;;
66607;SDS011;53462;39.616;8.824;2022-12-31T07:08:37;24.45;;;10.80;;
66607;SDS011;53462;39.616;8.824;2022-12-31T07:10:43;12.35;;;7.05;;
66607;SDS011;53462;39.616;8.824;2022-12-31T07:16:06;36.60;;;15.00;;
66607;SDS011;53462;39.616;8.824;2022-12-31T07:22:00;30.48;;;12.40;;
66607;SDS011;53462;39.616;8.824;2022-12-31T07:24:27;28.00;;;12.77;;
66607;SDS011;53462;39.616;8.824;2022-12-31T07:45:22;89.80;;;45.05;;
66607;SDS011;53462;39.616;8.824;2022-12-31T07:47:59;51.83;;;26.08;;
66607;SDS011;53462;39.616;8.824;2022-12-31T07:50:25;42.17;;;22.30;;
66607;SDS011;53462;39.616;8.824;2022-12-31T07:52:51;39.95;;;21.85;;
66607;SDS011;53462;39.616;8.824;2022-12-31T07:55:17;62.42;;;32.75;;
66607;SDS011;53462;39.616;8.824;2022-12-31T07:57:54;104.10;;;59.55;;
66607;SDS011;53462;39.616;8.824;2022-12-31T08:00:26;164.98;;;102.45;;
66607;SDS011;53462;39.616;8.824;2022-12-31T08:03:15;38.60;;;22.38;;
66607;SDS011;53462;39.616;8.824;2022-12-31T08:11:46;29.65;;;16.00;;
66607;SDS011;53462;39.616;8.824;2022-12-31T08:14:24;38.55;;;20.27;;
66607;SDS011;53462;39.616;8.824;2022-12-31T08:16:51;24.60;;;13.40;;
66607;SDS011;53462;39.616;8.824;2022-12-31T08:25:00;29.70;;;14.07;;
66607;SDS011;53462;39.616;8.824;2022-12-31T08:30:54;27.33;;;14.15;;
66607;SDS011;53462;39.616;8.824;2022-12-31T08:33:31;27.70;;;15.38;;
66607;SDS011;53462;39.616;8.824;2022-12-31T08:39:00;29.25;;;16.75;;
66607;SDS011;53462;39.616;8.824;2022-12-31T08:46:58;22.40;;;11.07;;
66607;SDS011;53462;39.616;8.824;2022-12-31T08:49:36;24.25;;;10.93;;
66607;SDS011;53462;39.616;8.824;2022-12-31T08:52:02;21.33;;;10.32;;
66607;SDS011;53462;39.616;8.824;2022-12-31T08:54:28;21.17;;;9.85;;
66607;SDS011;53462;39.616;8.824;2022-12-31T09:07:19;19.92;;;9.45;;
66607;SDS011;53462;39.616;8.824;2022-12-31T09:09:59;15.48;;;8.32;;
66607;SDS011;53462;39.616;8.824;2022-12-31T09:12:48;18.70;;;8.60;;
66607;SDS011;53462;39.616;8.824;2022-12-31T09:15:32;21.00;;;9.30;;
66607;SDS011;53462;39.616;8.824;2022-12-31T09:18:22;15.73;;;6.60;;
66607;SDS011;53462;39.616;8.824;2022-12-31T09:20:49;17.33;;;8.50;;
66607;SDS011;53462;39.616;8.824;2022-12-31T09:23:15;14.95;;;5.30;;
66607;SDS011;53462;39.616;8.824;2022-12-31T09:25:44;13.85;;;5.10;;
66607;SDS011;53462;39.616;8.824;2022-12-31T09:31:12;12.35;;;4.18;;
66607;SDS011;53462;39.616;8.824;2022-12-31T09:33:49;13.43;;;6.30;;
66607;SDS011;53462;39.616;8.824;2022-12-31T09:36:25;14.10;;;5.95;;
66607;SDS011;53462;39.616;8.824;2022-12-31T10:06:13;14.13;;;4.60;;
66607;SDS011;53462;39.616;8.824;2022-12-31T10:09:08;12.07;;;4.80;;
66607;SDS011;53462;39.616;8.824;2022-12-31T10:14:41;13.43;;;5.30;;
66607;SDS011;53462;39.616;8.824;2022-12-31T10:17:26;10.75;;;4.70;;
66607;SDS011;53462;39.616;8.824;2022-12-31T10:25:22;16.73;;;5.18;;
66607;SDS011;53462;39.616;8.824;2022-12-31T10:39:53;14.32;;;4.20;;
66607;SDS011;53462;39.616;8.824;2022-12-31T10:53:24;15.77;;;4.85;;
66607;SDS011;53462;39.616;8.824;2022-12-31T10:59:02;15.00;;;5.60;;
66607;SDS011;53462;39.616;8.824;2022-12-31T11:01:38;12.38;;;4.40;;
66607;SDS011;53462;39.616;8.824;2022-12-31T11:07:02;12.63;;;4.28;;
66607;SDS011;53462;39.616;8.824;2022-12-31T11:42:45;15.82;;;5.18;;
66607;SDS011;53462;39.616;8.824;2022-12-31T11:56:36;19.45;;;4.13;;
66607;SDS011;53462;39.616;8.824;2022-12-31T11:59:11;16.10;;;4.07;;
66607;SDS011;53462;39.616;8.824;2022-12-31T12:01:50;13.60;;;3.70;;
66607;SDS011;53462;39.616;8.824;2022-12-31T12:04:39;14.15;;;3.83;;
66607;SDS011;53462;39.616;8.824;2022-12-31T12:07:12;14.82;;;5.47;;
66607;SDS011;53462;39.616;8.824;2022-12-31T12:09:39;11.82;;;4.30;;
66607;SDS011;53462;39.616;8.824;2022-12-31T12:12:08;11.23;;;2.90;;
66607;SDS011;53462;39.616;8.824;2022-12-31T12:14:37;16.38;;;4.72;;
66607;SDS011;53462;39.616;8.824;2022-12-31T12:17:15;10.30;;;3.45;;
66607;SDS011;53462;39.616;8.824;2022-12-31T12:19:52;13.77;;;4.50;;
66607;SDS011;53462;39.616;8.824;2022-12-31T12:22:20;14.55;;;4.30;;
66607;SDS011;53462;39.616;8.824;2022-12-31T12:24:54;14.40;;;4.07;;
66607;SDS011;53462;39.616;8.824;2022-12-31T12:27:28;21.17;;;4.72;;
66607;SDS011;53462;39.616;8.824;2022-12-31T12:29:56;11.98;;;4.53;;
66607;SDS011;53462;39.616;8.824;2022-12-31T12:32:23;19.40;;;4.63;;
66607;SDS011;53462;39.616;8.824;2022-12-31T12:34:51;19.90;;;4.70;;
66607;SDS011;53462;39.616;8.824;2022-12-31T12:37:35;13.05;;;4.20;;
66607;SDS011;53462;39.616;8.824;2022-12-31T12:40:19;16.08;;;5.20;;
66607;SDS011;53462;39.616;8.824;2022-12-31T12:42:49;12.23;;;4.95;;
66607;SDS011;53462;39.616;8.824;2022-12-31T12:45:21;16.35;;;5.18;;
66607;SDS011;53462;39.616;8.824;2022-12-31T12:48:00;10.38;;;4.20;;
66607;SDS011;53462;39.616;8.824;2022-12-31T12:50:41;14.77;;;4.03;;
66607;SDS011;53462;39.616;8.824;2022-12-31T12:53:24;13.20;;;4.25;;
66607;SDS011;53462;39.616;8.824;2022-12-31T12:58:33;20.27;;;5.28;;
66607;SDS011;53462;39.616;8.824;2022-12-31T13:07:14;16.80;;;5.05;;
66607;SDS011;53462;39.616;8.824;2022-12-31T13:10:08;13.75;;;4.20;;
66607;SDS011;53462;39.616;8.824;2022-12-31T13:15:57;18.40;;;7.05;;
66607;SDS011;53462;39.616;8.824;2022-12-31T13:23:50;17.90;;;5.35;;
66607;SDS011;53462;39.616;8.824;2022-12-31T13:29:36;12.23;;;3.85;;
66607;SDS011;53462;39.616;8.824;2022-12-31T13:32:06;13.35;;;3.55;;
66607;SDS011;53462;39.616;8.824;2022-12-31T13:34:39;18.38;;;4.05;;
66607;SDS011;53462;39.616;8.824;2022-12-31T13:40:06;13.80;;;4.22;;
66607;SDS011;53462;39.616;8.824;2022-12-31T13:42:50;15.00;;;5.68;;
66607;SDS011;53462;39.616;8.824;2022-12-31T13:45:36;9.20;;;3.72;;
66607;SDS011;53462;39.616;8.824;2022-12-31T13:48:10;11.30;;;3.50;;
66607;SDS011;53462;39.616;8.824;2022-12-31T13:50:47;12.60;;;4.47;;
66607;SDS011;53462;39.616;8.824;2022-12-31T13:56:03;13.00;;;4.93;;
66607;SDS011;53462;39.616;8.824;2022-12-31T13:58:45;12.93;;;4.47;;
66607;SDS011;53462;39.616;8.824;2022-12-31T14:01:19;12.68;;;4.00;;
66607;SDS011;53462;39.616;8.824;2022-12-31T14:04:14;14.60;;;4.32;;
66607;SDS011;53462;39.616;8.824;2022-12-31T14:06:57;14.65;;;3.97;;
66607;SDS011;53462;39.616;8.824;2022-12-31T14:09:34;15.50;;;3.78;;
66607;SDS011;53462;39.616;8.824;2022-12-31T14:39:48;12.35;;;3.60;;
66607;SDS011;53462;39.616;8.824;2022-12-31T14:50:24;8.70;;;2.90;;
66607;SDS011;53462;39.616;8.824;2022-12-31T14:52:53;12.07;;;3.00;;
66607;SDS011;53462;39.616;8.824;2022-12-31T14:55:29;11.40;;;4.00;;
66607;SDS011;53462;39.616;8.824;2022-12-31T14:58:15;11.60;;;2.88;;
66607;SDS011;53462;39.616;8.824;2022-12-31T15:01:31;14.13;;;3.47;;
66607;SDS011;53462;39.616;8.824;2022-12-31T15:03:43;12.27;;;3.17;;
66607;SDS011;53462;39.616;8.824;2022-12-31T15:17:25;17.55;;;3.53;;
66607;SDS011;53462;39.616;8.824;2022-12-31T15:22:51;12.95;;;3.58;;
66607;SDS011;53462;39.616;8.824;2022-12-31T15:25:28;14.75;;;4.50;;
66607;SDS011;53462;39.616;8.824;2022-12-31T15:28:01;10.70;;;4.13;;
66607;SDS011;53462;39.616;8.824;2022-12-31T15:33:15;11.45;;;3.80;;
66607;SDS011;53462;39.616;8.824;2022-12-31T15:35:47;12.15;;;4.10;;
66607;SDS011;53462;39.616;8.824;2022-12-31T15:40:41;12.48;;;4.35;;
66607;SDS011;53462;39.616;8.824;2022-12-31T15:45:51;12.43;;;3.97;;
66607;SDS011;53462;39.616;8.824;2022-12-31T15:51:20;16.10;;;5.18;;
66607;SDS011;53462;39.616;8.824;2022-12-31T15:53:51;12.55;;;6.20;;
66607;SDS011;53462;39.616;8.824;2022-12-31T15:56:40;13.35;;;5.53;;
66607;SDS011;53462;39.616;8.824;2022-12-31T15:59:12;16.48;;;5.40;;
66607;SDS011;53462;39.616;8.824;2022-12-31T16:01:41;14.45;;;5.55;;
66607;SDS011;53462;39.616;8.824;2022-12-31T16:06:59;18.45;;;10.15;;
66607;SDS011;53462;39.616;8.824;2022-12-31T16:09:31;15.55;;;7.80;;
66607;SDS011;53462;39.616;8.824;2022-12-31T16:12:00;22.73;;;9.57;;
66607;SDS011;53462;39.616;8.824;2022-12-31T16:14:42;31.35;;;10.88;;
66607;SDS011;53462;39.616;8.824;2022-12-31T16:17:29;29.73;;;13.55;;
66607;SDS011;53462;39.616;8.824;2022-12-31T16:19:57;68.10;;;35.35;;
66607;SDS011;53462;39.616;8.824;2022-12-31T16:22:26;64.45;;;35.25;;
66607;SDS011;53462;39.616;8.824;2022-12-31T16:24:59;45.15;;;25.20;;
66607;SDS011;53462;39.616;8.824;2022-12-31T16:27:26;35.70;;;19.77;;
66607;SDS011;53462;39.616;8.824;2022-12-31T16:29:58;46.70;;;28.67;;
66607;SDS011;53462;39.616;8.824;2022-12-31T16:32:36;58.67;;;34.85;;
66607;SDS011;53462;39.616;8.824;2022-12-31T16:35:18;102.57;;;57.38;;
66607;SDS011;53462;39.616;8.824;2022-12-31T16:38:00;145.27;;;86.78;;
66607;SDS011;53462;39.616;8.824;2022-12-31T16:40:32;46.75;;;26.95;;
66607;SDS011;53462;39.616;8.824;2022-12-31T16:42:58;45.63;;;29.02;;
66607;SDS011;53462;39.616;8.824;2022-12-31T16:47:54;51.33;;;28.70;;
66607;SDS011;53462;39.616;8.824;2022-12-31T16:50:20;65.47;;;39.17;;
66607;SDS011;53462;39.616;8.824;2022-12-31T16:52:49;74.45;;;42.63;;
66607;SDS011;53462;39.616;8.824;2022-12-31T16:55:23;62.65;;;33.30;;
66607;SDS011;53462;39.616;8.824;2022-12-31T16:57:52;49.78;;;29.67;;
66607;SDS011;53462;39.616;8.824;2022-12-31T17:00:24;71.78;;;40.33;;
66607;SDS011;53462;39.616;8.824;2022-12-31T17:05:29;80.72;;;47.30;;
66607;SDS011;53462;39.616;8.824;2022-12-31T17:07:56;108.13;;;58.97;;
66607;SDS011;53462;39.616;8.824;2022-12-31T17:10:38;69.05;;;39.90;;
66607;SDS011;53462;39.616;8.824;2022-12-31T17:13:16;57.17;;;32.47;;
66607;SDS011;53462;39.616;8.824;2022-12-31T17:15:48;46.83;;;25.27;;
66607;SDS011;53462;39.616;8.824;2022-12-31T17:18:19;33.72;;;20.20;;
66607;SDS011;53462;39.616;8.824;2022-12-31T17:20:49;51.65;;;30.95;;
66607;SDS011;53462;39.616;8.824;2022-12-31T17:23:24;69.28;;;39.72;;
66607;SDS011;53462;39.616;8.824;2022-12-31T17:26:07;61.65;;;39.67;;
66607;SDS011;53462;39.616;8.824;2022-12-31T17:28:39;89.10;;;50.90;;
66607;SDS011;53462;39.616;8.824;2022-12-31T17:34:04;93.53;;;62.45;;
66607;SDS011;53462;39.616;8.824;2022-12-31T17:36:56;62.75;;;36.33;;
66607;SDS011;53462;39.616;8.824;2022-12-31T17:39:24;68.10;;;39.95;;
66607;SDS011;53462;39.616;8.824;2022-12-31T17:41:51;67.47;;;39.85;;
66607;SDS011;53462;39.616;8.824;2022-12-31T17:44:29;65.35;;;38.92;;
66607;SDS011;53462;39.616;8.824;2022-12-31T17:46:59;53.78;;;33.63;;
66607;SDS011;53462;39.616;8.824;2022-12-31T17:49:28;49.17;;;29.75;;
66607;SDS011;53462;39.616;8.824;2022-12-31T17:51:55;44.58;;;26.40;;
66607;SDS011;53462;39.616;8.824;2022-12-31T17:54:21;45.17;;;25.55;;
66607;SDS011;53462;39.616;8.824;2022-12-31T17:56:47;55.33;;;27.50;;
66607;SDS011;53462;39.616;8.824;2022-12-31T17:59:14;46.75;;;28.83;;
66607;SDS011;53462;39.616;8.824;2022-12-31T18:01:49;39.58;;;21.88;;
66607;SDS011;53462;39.616;8.824;2022-12-31T18:04:16;52.47;;;30.77;;
66607;SDS011;53462;39.616;8.824;2022-12-31T18:06:43;60.95;;;36.80;;
66607;SDS011;53462;39.616;8.824;2022-12-31T18:09:09;47.70;;;26.27;;
66607;SDS011;53462;39.616;8.824;2022-12-31T18:11:36;33.10;;;20.10;;
66607;SDS011;53462;39.616;8.824;2022-12-31T18:14:04;70.95;;;38.05;;
66607;SDS011;53462;39.616;8.824;2022-12-31T18:16:31;171.15;;;84.25;;
66607;SDS011;53462;39.616;8.824;2022-12-31T18:18:57;115.15;;;62.15;;
66607;SDS011;53462;39.616;8.824;2022-12-31T18:21:28;91.60;;;50.33;;
66607;SDS011;53462;39.616;8.824;2022-12-31T18:23:58;68.07;;;38.63;;
66607;SDS011;53462;39.616;8.824;2022-12-31T18:26:26;70.30;;;40.25;;
66607;SDS011;53462;39.616;8.824;2022-12-31T18:28:52;66.03;;;37.80;;
66607;SDS011;53462;39.616;8.824;2022-12-31T18:31:19;126.78;;;69.18;;
66607;SDS011;53462;39.616;8.824;2022-12-31T18:33:53;75.13;;;41.10;;
66607;SDS011;53462;39.616;8.824;2022-12-31T18:36:21;82.85;;;47.95;;
66607;SDS011;53462;39.616;8.824;2022-12-31T18:38:48;61.22;;;35.05;;
66607;SDS011;53462;39.616;8.824;2022-12-31T18:41:19;47.40;;;25.88;;
66607;SDS011;53462;39.616;8.824;2022-12-31T18:43:52;37.75;;;20.52;;
66607;SDS011;53462;39.616;8.824;2022-12-31T18:46:20;47.38;;;21.77;;
66607;SDS011;53462;39.616;8.824;2022-12-31T18:48:47;42.47;;;24.15;;
66607;SDS011;53462;39.616;8.824;2022-12-31T18:51:15;42.92;;;22.75;;
66607;SDS011;53462;39.616;8.824;2022-12-31T18:53:43;58.72;;;31.45;;
66607;SDS011;53462;39.616;8.824;2022-12-31T18:56:10;55.60;;;33.63;;
66607;SDS011;53462;39.616;8.824;2022-12-31T18:58:37;67.00;;;41.25;;
66607;SDS011;53462;39.616;8.824;2022-12-31T19:01:03;68.82;;;41.05;;
66607;SDS011;53462;39.616;8.824;2022-12-31T19:03:29;70.28;;;42.95;;
66607;SDS011;53462;39.616;8.824;2022-12-31T19:05:55;94.28;;;56.72;;
66607;SDS011;53462;39.616;8.824;2022-12-31T19:08:21;75.15;;;44.58;;
66607;SDS011;53462;39.616;8.824;2022-12-31T19:10:48;90.22;;;54.30;;
66607;SDS011;53462;39.616;8.824;2022-12-31T19:13:16;125.25;;;85.93;;
66607;SDS011;53462;39.616;8.824;2022-12-31T19:15:45;62.75;;;36.45;;
66607;SDS011;53462;39.616;8.824;2022-12-31T19:18:13;89.75;;;55.38;;
66607;SDS011;53462;39.616;8.824;2022-12-31T19:20:39;64.97;;;37.63;;
66607;SDS011;53462;39.616;8.824;2022-12-31T19:23:08;64.63;;;34.80;;
66607;SDS011;53462;39.616;8.824;2022-12-31T19:25:38;63.70;;;36.05;;
66607;SDS011;53462;39.616;8.824;2022-12-31T19:28:04;59.72;;;32.80;;
66607;SDS011;53462;39.616;8.824;2022-12-31T19:30:37;64.18;;;42.25;;
66607;SDS011;53462;39.616;8.824;2022-12-31T19:33:03;80.93;;;52.13;;
66607;SDS011;53462;39.616;8.824;2022-12-31T19:35:29;55.45;;;32.72;;
66607;SDS011;53462;39.616;8.824;2022-12-31T19:37:55;64.38;;;37.97;;
66607;SDS011;53462;39.616;8.824;2022-12-31T19:40:22;77.30;;;43.42;;
66607;SDS011;53462;39.616;8.824;2022-12-31T19:42:50;81.95;;;45.20;;
66607;SDS011;53462;39.616;8.824;2022-12-31T19:45:18;47.25;;;29.23;;